sensor_id;sensor_type;location;lat;lon;timestamp;pressure;altitude;pressure_sealevel;temperature;humidity
10921;BME280;5513;50.580;8.818;2023-05-20T00:02:07;99486.00;;;14.63;100.00
10921;BME280;5513;50.580;8.818;2023-05-20T00:04:35;99497.75;;;14.60;100.00
10921;BME280;5513;50.580;8.818;2023-05-20T00:07:06;99489.13;;;14.33;100.00
10921;BME280;5513;50.580;8.818;2023-05-20T00:09:34;99486.47;;;14.33;100.00
10921;BME280;5513;50.580;8.818;2023-05-20T00:12:03;99485.66;;;14.44;100.00
10921;BME280;5513;50.580;8.818;2023-05-20T00:14:32;99488.69;;;14.39;100.00
10921;BME280;5513;50.580;8.818;2023-05-20T00:17:01;99481.97;;;14.33;100.00
10921;BME280;5513;50.580;8.818;2023-05-20T00:19:29;99475.13;;;14.42;100.00
10921;BME280;5513;50.580;8.818;2023-05-20T00:21:57;99472.44;;;14.42;100.00
10921;BME280;5513;50.580;8.818;2023-05-20T00:24:27;99468.94;;;14.42;100.00
10921;BME280;5513;50.580;8.818;2023-05-20T00:26:55;99480.44;;;14.42;100.00
10921;BME280;5513;50.580;8.818;2023-05-20T00:29:25;99476.31;;;14.38;100.00
10921;BME280;5513;50.580;8.818;2023-05-20T00:31:54;99488.28;;;14.56;100.00
10921;BME280;5513;50.580;8.818;2023-05-20T00:34:22;99488.91;;;14.60;100.00
10921;BME280;5513;50.580;8.818;2023-05-20T00:36:52;99483.06;;;14.55;100.00
10921;BME280;5513;50.580;8.818;2023-05-20T00:39:21;99475.00;;;14.44;100.00
10921;BME280;5513;50.580;8.818;2023-05-20T00:41:51;99478.75;;;14.65;100.00
10921;BME280;5513;50.580;8.818;2023-05-20T00:44:19;99477.13;;;14.51;100.00
10921;BME280;5513;50.580;8.818;2023-05-20T00:46:51;99474.00;;;14.57;100.00
10921;BME280;5513;50.580;8.818;2023-05-20T00:49:20;99472.63;;;14.52;100.00
10921;BME280;5513;50.580;8.818;2023-05-20T00:51:49;99478.25;;;14.60;100.00
10921;BME280;5513;50.580;8.818;2023-05-20T00:54:18;99471.97;;;14.72;100.00
10921;BME280;5513;50.580;8.818;2023-05-20T00:56:46;99464.69;;;14.63;100.00
10921;BME280;5513;50.580;8.818;2023-05-20T00:59:17;99472.81;;;14.62;100.00
10921;BME280;5513;50.580;8.818;2023-05-20T01:01:46;99468.53;;;14.35;100.00
10921;BME280;5513;50.580;8.818;2023-05-20T01:04:15;99465.31;;;14.43;100.00
10921;BME280;5513;50.580;8.818;2023-05-20T01:06:43;99470.59;;;14.31;100.00
10921;BME280;5513;50.580;8.818;2023-05-20T01:09:13;99464.25;;;14.21;100.00
10921;BME280;5513;50.580;8.818;2023-05-20T01:11:47;99459.94;;;14.31;100.00
10921;BME280;5513;50.580;8.818;2023-05-20T01:14:21;99464.44;;;14.42;100.00
10921;BME280;5513;50.580;8.818;2023-05-20T01:16:51;99456.91;;;14.36;100.00
10921;BME280;5513;50.580;8.818;2023-05-20T01:19:26;99455.41;;;14.45;100.00
10921;BME280;5513;50.580;8.818;2023-05-20T01:22:02;99453.78;;;14.18;100.00
10921;BME280;5513;50.580;8.818;2023-05-20T01:24:34;99460.19;;;14.16;100.00
10921;BME280;5513;50.580;8.818;2023-05-20T01:27:03;99463.28;;;14.22;100.00
10921;BME280;5513;50.580;8.818;2023-05-20T01:29:36;99451.25;;;14.17;100.00
10921;BME280;5513;50.580;8.818;2023-05-20T01:32:06;99455.69;;;14.29;100.00
10921;BME280;5513;50.580;8.818;2023-05-20T01:34:40;99460.94;;;14.18;100.00
10921;BME280;5513;50.580;8.818;2023-05-20T01:37:09;99456.88;;;14.01;100.00
10921;BME280;5513;50.580;8.818;2023-05-20T01:39:41;99458.59;;;13.89;100.00
10921;BME280;5513;50.580;8.818;2023-05-20T01:42:10;99460.16;;;14.04;100.00
10921;BME280;5513;50.580;8.818;2023-05-20T01:44:39;99462.44;;;14.22;100.00
10921;BME280;5513;50.580;8.818;2023-05-20T01:47:08;99459.38;;;14.39;100.00
10921;BME280;5513;50.580;8.818;2023-05-20T01:49:36;99456.41;;;14.07;100.00
10921;BME280;5513;50.580;8.818;2023-05-20T01:52:05;99447.56;;;14.07;100.00
10921;BME280;5513;50.580;8.818;2023-05-20T01:54:33;99438.16;;;14.14;100.00
10921;BME280;5513;50.580;8.818;2023-05-20T01:57:03;99441.19;;;14.09;100.00
10921;BME280;5513;50.580;8.818;2023-05-20T01:59:33;99437.31;;;14.13;100.00
10921;BME280;5513;50.580;8.818;2023-05-20T02:02:03;99442.06;;;14.21;100.00
10921;BME280;5513;50.580;8.818;2023-05-20T02:04:32;99435.94;;;14.08;100.00
10921;BME280;5513;50.580;8.818;2023-05-20T02:07:00;99437.03;;;14.05;100.00
10921;BME280;5513;50.580;8.818;2023-05-20T02:09:29;99433.13;;;14.22;100.00
10921;BME280;5513;50.580;8.818;2023-05-20T02:11:57;99440.03;;;14.24;100.00
10921;BME280;5513;50.580;8.818;2023-05-20T02:14:27;99432.47;;;14.18;100.00
10921;BME280;5513;50.580;8.818;2023-05-20T02:16:57;99442.00;;;14.33;100.00
10921;BME280;5513;50.580;8.818;2023-05-20T02:19:25;99434.25;;;14.30;100.00
10921;BME280;5513;50.580;8.818;2023-05-20T02:21:54;99430.16;;;14.14;100.00
10921;BME280;5513;50.580;8.818;2023-05-20T02:24:23;99434.97;;;14.09;100.00
10921;BME280;5513;50.580;8.818;2023-05-20T02:26:52;99424.38;;;13.96;100.00
10921;BME280;5513;50.580;8.818;2023-05-20T02:29:21;99430.44;;;13.98;100.00
10921;BME280;5513;50.580;8.818;2023-05-20T02:31:51;99427.91;;;13.96;100.00
10921;BME280;5513;50.580;8.818;2023-05-20T02:34:19;99422.69;;;13.95;100.00
10921;BME280;5513;50.580;8.818;2023-05-20T02:36:48;99424.94;;;13.88;100.00
10921;BME280;5513;50.580;8.818;2023-05-20T02:39:17;99422.50;;;13.85;100.00
10921;BME280;5513;50.580;8.818;2023-05-20T02:41:45;99422.03;;;13.80;100.00
10921;BME280;5513;50.580;8.818;2023-05-20T02:44:14;99416.50;;;13.70;100.00
10921;BME280;5513;50.580;8.818;2023-05-20T02:46:42;99421.91;;;13.82;100.00
10921;BME280;5513;50.580;8.818;2023-05-20T02:49:12;99413.16;;;13.80;100.00
10921;BME280;5513;50.580;8.818;2023-05-20T02:51:41;99407.50;;;13.84;100.00
10921;BME280;5513;50.580;8.818;2023-05-20T02:54:09;99410.00;;;13.74;100.00
10921;BME280;5513;50.580;8.818;2023-05-20T02:56:37;99413.38;;;13.77;100.00
10921;BME280;5513;50.580;8.818;2023-05-20T02:59:08;99411.44;;;13.91;100.00
10921;BME280;5513;50.580;8.818;2023-05-20T03:01:37;99404.41;;;13.90;100.00
10921;BME280;5513;50.580;8.818;2023-05-20T03:04:07;99417.13;;;13.74;100.00
10921;BME280;5513;50.580;8.818;2023-05-20T03:06:37;99408.84;;;13.66;100.00
10921;BME280;5513;50.580;8.818;2023-05-20T03:09:10;99403.94;;;13.60;100.00
10921;BME280;5513;50.580;8.818;2023-05-20T03:11:40;99413.88;;;13.58;100.00
10921;BME280;5513;50.580;8.818;2023-05-20T03:14:08;99419.59;;;13.64;100.00
10921;BME280;5513;50.580;8.818;2023-05-20T03:16:39;99423.25;;;13.51;100.00
10921;BME280;5513;50.580;8.818;2023-05-20T03:19:07;99415.75;;;13.68;100.00
10921;BME280;5513;50.580;8.818;2023-05-20T03:21:37;99415.72;;;13.81;100.00
10921;BME280;5513;50.580;8.818;2023-05-20T03:24:06;99423.91;;;13.78;100.00
10921;BME280;5513;50.580;8.818;2023-05-20T03:26:34;99425.00;;;13.75;100.00
10921;BME280;5513;50.580;8.818;2023-05-20T03:29:04;99420.56;;;14.00;100.00
10921;BME280;5513;50.580;8.818;2023-05-20T03:31:32;99418.34;;;13.94;100.00
10921;BME280;5513;50.580;8.818;2023-05-20T03:34:01;99420.94;;;14.07;100.00
10921;BME280;5513;50.580;8.818;2023-05-20T03:36:29;99413.13;;;13.92;100.00
10921;BME280;5513;50.580;8.818;2023-05-20T03:39:02;99417.41;;;13.82;100.00
10921;BME280;5513;50.580;8.818;2023-05-20T03:41:31;99414.41;;;13.87;100.00
10921;BME280;5513;50.580;8.818;2023-05-20T03:43:59;99419.72;;;13.87;100.00
10921;BME280;5513;50.580;8.818;2023-05-20T03:46:28;99415.31;;;13.74;100.00
10921;BME280;5513;50.580;8.818;2023-05-20T03:48:58;99413.38;;;13.77;100.00
10921;BME280;5513;50.580;8.818;2023-05-20T03:51:28;99425.19;;;13.85;100.00
10921;BME280;5513;50.580;8.818;2023-05-20T03:53:56;99418.44;;;13.92;100.00
10921;BME280;5513;50.580;8.818;2023-05-20T03:56:26;99417.38;;;13.95;100.00
10921;BME280;5513;50.580;8.818;2023-05-20T03:58:55;99419.69;;;13.99;100.00
10921;BME280;5513;50.580;8.818;2023-05-20T04:01:24;99413.56;;;14.10;100.00
10921;BME280;5513;50.580;8.818;2023-05-20T04:03:53;99418.47;;;13.80;100.00
10921;BME280;5513;50.580;8.818;2023-05-20T04:06:21;99407.75;;;13.68;100.00
10921;BME280;5513;50.580;8.818;2023-05-20T04:08:50;99409.94;;;13.63;100.00
10921;BME280;5513;50.580;8.818;2023-05-20T04:11:19;99415.59;;;13.46;100.00
10921;BME280;5513;50.580;8.818;2023-05-20T04:13:49;99411.66;;;13.52;100.00
10921;BME280;5513;50.580;8.818;2023-05-20T04:16:17;99404.31;;;13.55;100.00
10921;BME280;5513;50.580;8.818;2023-05-20T04:18:45;99405.78;;;13.59;100.00
10921;BME280;5513;50.580;8.818;2023-05-20T04:21:14;99411.50;;;13.66;100.00
10921;BME280;5513;50.580;8.818;2023-05-20T04:23:44;99415.69;;;13.57;100.00
10921;BME280;5513;50.580;8.818;2023-05-20T04:26:14;99419.31;;;13.56;100.00
10921;BME280;5513;50.580;8.818;2023-05-20T04:28:42;99421.53;;;13.62;100.00
10921;BME280;5513;50.580;8.818;2023-05-20T04:31:16;99413.13;;;13.56;100.00
10921;BME280;5513;50.580;8.818;2023-05-20T04:33:45;99416.94;;;13.64;100.00
10921;BME280;5513;50.580;8.818;2023-05-20T04:36:14;99418.59;;;13.78;100.00
10921;BME280;5513;50.580;8.818;2023-05-20T04:38:43;99418.53;;;13.67;100.00
10921;BME280;5513;50.580;8.818;2023-05-20T04:41:11;99424.97;;;13.52;100.00
10921;BME280;5513;50.580;8.818;2023-05-20T04:43:41;99416.84;;;13.66;100.00
10921;BME280;5513;50.580;8.818;2023-05-20T04:46:11;99417.69;;;13.66;100.00
10921;BME280;5513;50.580;8.818;2023-05-20T04:48:41;99414.91;;;13.68;100.00
10921;BME280;5513;50.580;8.818;2023-05-20T04:51:10;99414.34;;;13.75;100.00
10921;BME280;5513;50.580;8.818;2023-05-20T04:53:41;99407.59;;;13.59;100.00
10921;BME280;5513;50.580;8.818;2023-05-20T04:56:11;99409.31;;;13.84;100.00
10921;BME280;5513;50.580;8.818;2023-05-20T04:58:41;99402.66;;;13.65;100.00
10921;BME280;5513;50.580;8.818;2023-05-20T05:01:10;99404.06;;;13.71;100.00
10921;BME280;5513;50.580;8.818;2023-05-20T05:03:38;99403.03;;;13.61;100.00
10921;BME280;5513;50.580;8.818;2023-05-20T05:06:11;99396.38;;;13.66;100.00
10921;BME280;5513;50.580;8.818;2023-05-20T05:08:39;99397.69;;;13.61;100.00
10921;BME280;5513;50.580;8.818;2023-05-20T05:11:08;99388.28;;;13.68;100.00
10921;BME280;5513;50.580;8.818;2023-05-20T05:13:37;99411.22;;;13.58;100.00
10921;BME280;5513;50.580;8.818;2023-05-20T05:16:06;99400.56;;;13.58;100.00
10921;BME280;5513;50.580;8.818;2023-05-20T05:18:35;99394.63;;;13.54;100.00
10921;BME280;5513;50.580;8.818;2023-05-20T05:21:04;99399.78;;;13.68;100.00
10921;BME280;5513;50.580;8.818;2023-05-20T05:23:34;99396.94;;;13.59;100.00
10921;BME280;5513;50.580;8.818;2023-05-20T05:26:02;99399.59;;;13.59;100.00
10921;BME280;5513;50.580;8.818;2023-05-20T05:28:31;99403.41;;;13.67;100.00
10921;BME280;5513;50.580;8.818;2023-05-20T05:30:59;99398.63;;;13.60;100.00
10921;BME280;5513;50.580;8.818;2023-05-20T05:33:27;99397.13;;;13.68;100.00
10921;BME280;5513;50.580;8.818;2023-05-20T05:35:56;99393.78;;;13.78;100.00
10921;BME280;5513;50.580;8.818;2023-05-20T05:38:26;99395.53;;;13.66;100.00
10921;BME280;5513;50.580;8.818;2023-05-20T05:40:56;99388.84;;;13.60;100.00
10921;BME280;5513;50.580;8.818;2023-05-20T05:43:24;99387.22;;;13.70;100.00
10921;BME280;5513;50.580;8.818;2023-05-20T05:45:52;99395.66;;;13.64;100.00
10921;BME280;5513;50.580;8.818;2023-05-20T05:48:21;99397.00;;;13.70;100.00
10921;BME280;5513;50.580;8.818;2023-05-20T05:50:49;99386.88;;;13.75;100.00
10921;BME280;5513;50.580;8.818;2023-05-20T05:53:18;99390.81;;;13.69;100.00
10921;BME280;5513;50.580;8.818;2023-05-20T05:55:46;99391.19;;;13.65;100.00
10921;BME280;5513;50.580;8.818;2023-05-20T05:58:16;99392.44;;;13.72;100.00
10921;BME280;5513;50.580;8.818;2023-05-20T06:00:44;99399.28;;;13.63;100.00
10921;BME280;5513;50.580;8.818;2023-05-20T06:03:12;99390.75;;;13.58;100.00
10921;BME280;5513;50.580;8.818;2023-05-20T06:05:44;99393.50;;;13.69;100.00
10921;BME280;5513;50.580;8.818;2023-05-20T06:08:13;99401.59;;;13.68;100.00
10921;BME280;5513;50.580;8.818;2023-05-20T06:10:46;99397.34;;;13.65;100.00
10921;BME280;5513;50.580;8.818;2023-05-20T06:13:16;99388.56;;;13.52;100.00
10921;BME280;5513;50.580;8.818;2023-05-20T06:15:44;99383.75;;;13.57;100.00
10921;BME280;5513;50.580;8.818;2023-05-20T06:18:13;99390.03;;;13.56;100.00
10921;BME280;5513;50.580;8.818;2023-05-20T06:20:41;99379.28;;;13.58;100.00
10921;BME280;5513;50.580;8.818;2023-05-20T06:23:09;99395.13;;;13.59;100.00
10921;BME280;5513;50.580;8.818;2023-05-20T06:25:38;99387.72;;;13.75;100.00
10921;BME280;5513;50.580;8.818;2023-05-20T06:28:06;99399.63;;;13.83;100.00
10921;BME280;5513;50.580;8.818;2023-05-20T06:30:36;99399.50;;;13.84;100.00
10921;BME280;5513;50.580;8.818;2023-05-20T06:33:04;99400.88;;;13.90;100.00
10921;BME280;5513;50.580;8.818;2023-05-20T06:35:32;99401.22;;;14.09;100.00
10921;BME280;5513;50.580;8.818;2023-05-20T06:38:02;99411.25;;;14.06;100.00
10921;BME280;5513;50.580;8.818;2023-05-20T06:40:30;99406.31;;;14.12;100.00
10921;BME280;5513;50.580;8.818;2023-05-20T06:42:59;99398.59;;;14.20;100.00
10921;BME280;5513;50.580;8.818;2023-05-20T06:45:27;99398.59;;;14.20;100.00
10921;BME280;5513;50.580;8.818;2023-05-20T06:47:57;99397.22;;;14.39;100.00
10921;BME280;5513;50.580;8.818;2023-05-20T06:50:26;99395.28;;;14.41;100.00
10921;BME280;5513;50.580;8.818;2023-05-20T06:52:55;99397.69;;;14.44;100.00
10921;BME280;5513;50.580;8.818;2023-05-20T06:55:26;99386.31;;;14.42;100.00
10921;BME280;5513;50.580;8.818;2023-05-20T06:57:54;99378.78;;;14.36;100.00
10921;BME280;5513;50.580;8.818;2023-05-20T07:00:22;99377.31;;;14.31;100.00
10921;BME280;5513;50.580;8.818;2023-05-20T07:02:51;99387.34;;;14.52;100.00
10921;BME280;5513;50.580;8.818;2023-05-20T07:05:20;99385.53;;;14.52;100.00
10921;BME280;5513;50.580;8.818;2023-05-20T07:07:50;99393.41;;;14.65;100.00
10921;BME280;5513;50.580;8.818;2023-05-20T07:10:18;99384.38;;;14.79;100.00
10921;BME280;5513;50.580;8.818;2023-05-20T07:12:48;99386.91;;;14.69;100.00
10921;BME280;5513;50.580;8.818;2023-05-20T07:15:17;99386.91;;;14.80;100.00
10921;BME280;5513;50.580;8.818;2023-05-20T07:17:46;99379.63;;;14.71;100.00
10921;BME280;5513;50.580;8.818;2023-05-20T07:20:14;99385.94;;;14.81;100.00
10921;BME280;5513;50.580;8.818;2023-05-20T07:22:44;99373.84;;;14.88;100.00
10921;BME280;5513;50.580;8.818;2023-05-20T07:25:14;99376.16;;;15.15;100.00
10921;BME280;5513;50.580;8.818;2023-05-20T07:27:43;99362.91;;;14.92;100.00
10921;BME280;5513;50.580;8.818;2023-05-20T07:30:12;99367.53;;;15.01;100.00
10921;BME280;5513;50.580;8.818;2023-05-20T07:32:40;99367.66;;;14.99;100.00
10921;BME280;5513;50.580;8.818;2023-05-20T07:35:09;99368.63;;;15.21;100.00
10921;BME280;5513;50.580;8.818;2023-05-20T07:37:37;99369.34;;;15.23;100.00
10921;BME280;5513;50.580;8.818;2023-05-20T07:40:08;99365.81;;;15.33;100.00
10921;BME280;5513;50.580;8.818;2023-05-20T07:42:37;99366.63;;;15.56;100.00
10921;BME280;5513;50.580;8.818;2023-05-20T07:45:06;99356.94;;;15.55;100.00
10921;BME280;5513;50.580;8.818;2023-05-20T07:47:34;99368.78;;;15.85;100.00
10921;BME280;5513;50.580;8.818;2023-05-20T07:50:03;99358.75;;;15.66;100.00
10921;BME280;5513;50.580;8.818;2023-05-20T07:52:32;99368.19;;;15.59;100.00
10921;BME280;5513;50.580;8.818;2023-05-20T07:55:21;99369.31;;;15.67;100.00
10921;BME280;5513;50.580;8.818;2023-05-20T07:57:50;99363.00;;;15.68;100.00
10921;BME280;5513;50.580;8.818;2023-05-20T08:00:18;99352.69;;;15.64;100.00
10921;BME280;5513;50.580;8.818;2023-05-20T08:02:47;99357.06;;;15.65;100.00
10921;BME280;5513;50.580;8.818;2023-05-20T08:05:16;99359.81;;;15.52;100.00
10921;BME280;5513;50.580;8.818;2023-05-20T08:07:44;99368.94;;;15.61;100.00
10921;BME280;5513;50.580;8.818;2023-05-20T08:10:13;99375.59;;;15.78;100.00
10921;BME280;5513;50.580;8.818;2023-05-20T08:12:43;99378.78;;;15.60;100.00
10921;BME280;5513;50.580;8.818;2023-05-20T08:15:11;99381.41;;;15.71;100.00
10921;BME280;5513;50.580;8.818;2023-05-20T08:17:40;99376.34;;;15.57;100.00
10921;BME280;5513;50.580;8.818;2023-05-20T08:20:10;99366.25;;;15.72;100.00
10921;BME280;5513;50.580;8.818;2023-05-20T08:22:40;99371.19;;;15.88;100.00
10921;BME280;5513;50.580;8.818;2023-05-20T08:25:09;99366.44;;;15.91;100.00
10921;BME280;5513;50.580;8.818;2023-05-20T08:27:37;99362.50;;;16.07;100.00
10921;BME280;5513;50.580;8.818;2023-05-20T08:30:09;99363.06;;;16.42;100.00
10921;BME280;5513;50.580;8.818;2023-05-20T08:32:37;99349.50;;;16.34;100.00
10921;BME280;5513;50.580;8.818;2023-05-20T08:35:06;99351.47;;;16.74;100.00
10921;BME280;5513;50.580;8.818;2023-05-20T08:37:35;99336.19;;;16.95;100.00
10921;BME280;5513;50.580;8.818;2023-05-20T08:40:04;99338.19;;;16.93;100.00
10921;BME280;5513;50.580;8.818;2023-05-20T08:42:34;99327.88;;;16.68;100.00
10921;BME280;5513;50.580;8.818;2023-05-20T08:45:03;99339.03;;;16.94;100.00
10921;BME280;5513;50.580;8.818;2023-05-20T08:47:34;99336.31;;;16.84;100.00
10921;BME280;5513;50.580;8.818;2023-05-20T08:50:02;99344.69;;;16.70;100.00
10921;BME280;5513;50.580;8.818;2023-05-20T08:52:33;99334.56;;;16.73;100.00
10921;BME280;5513;50.580;8.818;2023-05-20T08:55:04;99342.72;;;16.51;100.00
10921;BME280;5513;50.580;8.818;2023-05-20T08:57:36;99334.09;;;16.68;100.00
10921;BME280;5513;50.580;8.818;2023-05-20T09:00:06;99338.44;;;16.90;100.00
10921;BME280;5513;50.580;8.818;2023-05-20T09:02:42;99327.72;;;17.21;100.00
10921;BME280;5513;50.580;8.818;2023-05-20T09:05:10;99337.88;;;17.27;100.00
10921;BME280;5513;50.580;8.818;2023-05-20T09:07:39;99327.97;;;17.58;100.00
10921;BME280;5513;50.580;8.818;2023-05-20T09:10:09;99328.34;;;17.53;100.00
10921;BME280;5513;50.580;8.818;2023-05-20T09:12:38;99337.53;;;17.60;100.00
10921;BME280;5513;50.580;8.818;2023-05-20T09:15:07;99358.25;;;17.08;100.00
10921;BME280;5513;50.580;8.818;2023-05-20T09:17:36;99340.13;;;17.22;100.00
10921;BME280;5513;50.580;8.818;2023-05-20T09:20:09;99347.16;;;17.23;100.00
10921;BME280;5513;50.580;8.818;2023-05-20T09:22:38;99342.72;;;17.52;100.00
10921;BME280;5513;50.580;8.818;2023-05-20T09:25:07;99344.00;;;17.48;100.00
10921;BME280;5513;50.580;8.818;2023-05-20T09:27:38;99361.97;;;17.27;100.00
10921;BME280;5513;50.580;8.818;2023-05-20T09:30:08;99353.88;;;17.48;100.00
10921;BME280;5513;50.580;8.818;2023-05-20T09:32:38;99345.16;;;17.65;100.00
10921;BME280;5513;50.580;8.818;2023-05-20T09:35:12;99351.84;;;18.19;100.00
10921;BME280;5513;50.580;8.818;2023-05-20T09:37:41;99349.00;;;18.49;100.00
10921;BME280;5513;50.580;8.818;2023-05-20T09:40:12;99351.25;;;18.54;100.00
10921;BME280;5513;50.580;8.818;2023-05-20T09:42:48;99353.19;;;18.62;100.00
10921;BME280;5513;50.580;8.818;2023-05-20T09:45:18;99355.72;;;17.57;100.00
10921;BME280;5513;50.580;8.818;2023-05-20T09:47:49;99351.28;;;17.77;100.00
10921;BME280;5513;50.580;8.818;2023-05-20T09:50:20;99356.91;;;17.73;100.00
10921;BME280;5513;50.580;8.818;2023-05-20T09:52:50;99346.59;;;17.69;100.00
10921;BME280;5513;50.580;8.818;2023-05-20T09:55:21;99347.22;;;17.42;100.00
10921;BME280;5513;50.580;8.818;2023-05-20T09:57:50;99349.09;;;17.51;100.00
10921;BME280;5513;50.580;8.818;2023-05-20T10:00:20;99342.72;;;17.52;100.00
10921;BME280;5513;50.580;8.818;2023-05-20T10:02:50;99341.06;;;17.61;100.00
10921;BME280;5513;50.580;8.818;2023-05-20T10:05:26;99337.31;;;17.23;100.00
10921;BME280;5513;50.580;8.818;2023-05-20T10:11:15;99339.38;;;17.10;100.00
10921;BME280;5513;50.580;8.818;2023-05-20T10:13:58;99334.97;;;16.99;100.00
10921;BME280;5513;50.580;8.818;2023-05-20T10:16:40;99336.56;;;17.11;100.00
10921;BME280;5513;50.580;8.818;2023-05-20T10:19:14;99335.63;;;17.22;100.00
10921;BME280;5513;50.580;8.818;2023-05-20T10:21:57;99333.09;;;17.30;100.00
10921;BME280;5513;50.580;8.818;2023-05-20T10:24:29;99324.97;;;17.41;100.00
10921;BME280;5513;50.580;8.818;2023-05-20T10:27:02;99329.88;;;17.46;100.00
10921;BME280;5513;50.580;8.818;2023-05-20T10:29:42;99325.75;;;17.72;100.00
10921;BME280;5513;50.580;8.818;2023-05-20T10:32:10;99328.44;;;17.82;100.00
10921;BME280;5513;50.580;8.818;2023-05-20T10:34:48;99325.41;;;17.66;100.00
10921;BME280;5513;50.580;8.818;2023-05-20T10:37:26;99318.56;;;18.02;100.00
10921;BME280;5513;50.580;8.818;2023-05-20T10:40:09;99321.38;;;18.00;100.00
10921;BME280;5513;50.580;8.818;2023-05-20T10:42:40;99325.19;;;18.17;100.00
10921;BME280;5513;50.580;8.818;2023-05-20T10:45:11;99319.13;;;18.25;100.00
10921;BME280;5513;50.580;8.818;2023-05-20T10:47:41;99327.28;;;18.23;100.00
10921;BME280;5513;50.580;8.818;2023-05-20T10:50:26;99335.47;;;17.93;100.00
10921;BME280;5513;50.580;8.818;2023-05-20T10:53:03;99336.84;;;17.68;100.00
10921;BME280;5513;50.580;8.818;2023-05-20T10:55:39;99332.72;;;17.54;100.00
10921;BME280;5513;50.580;8.818;2023-05-20T10:58:08;99336.81;;;17.49;100.00
10921;BME280;5513;50.580;8.818;2023-05-20T11:00:37;99337.78;;;17.38;100.00
10921;BME280;5513;50.580;8.818;2023-05-20T11:03:06;99333.66;;;17.34;100.00
10921;BME280;5513;50.580;8.818;2023-05-20T11:05:35;99332.44;;;17.38;100.00
10921;BME280;5513;50.580;8.818;2023-05-20T11:08:07;99331.16;;;17.42;100.00
10921;BME280;5513;50.580;8.818;2023-05-20T11:10:55;99324.09;;;17.31;100.00
10921;BME280;5513;50.580;8.818;2023-05-20T11:13:23;99338.44;;;17.21;100.00
10921;BME280;5513;50.580;8.818;2023-05-20T11:15:54;99336.81;;;17.49;100.00
10921;BME280;5513;50.580;8.818;2023-05-20T11:18:22;99325.59;;;17.84;100.00
10921;BME280;5513;50.580;8.818;2023-05-20T11:20:50;99310.88;;;18.55;100.00
10921;BME280;5513;50.580;8.818;2023-05-20T11:23:21;99311.28;;;18.70;100.00
10921;BME280;5513;50.580;8.818;2023-05-20T11:25:51;99310.44;;;18.70;100.00
10921;BME280;5513;50.580;8.818;2023-05-20T11:28:19;99316.41;;;18.44;100.00
10921;BME280;5513;50.580;8.818;2023-05-20T11:30:49;99307.81;;;18.21;100.00
10921;BME280;5513;50.580;8.818;2023-05-20T11:33:19;99310.50;;;18.21;100.00
10921;BME280;5513;50.580;8.818;2023-05-20T11:35:48;99308.41;;;18.06;100.00
10921;BME280;5513;50.580;8.818;2023-05-20T11:38:18;99307.81;;;18.12;100.00
10921;BME280;5513;50.580;8.818;2023-05-20T11:40:52;99307.28;;;18.18;100.00
10921;BME280;5513;50.580;8.818;2023-05-20T11:43:22;99291.16;;;18.37;100.00
10921;BME280;5513;50.580;8.818;2023-05-20T11:45:53;99283.47;;;18.99;100.00
10921;BME280;5513;50.580;8.818;2023-05-20T11:48:22;99281.00;;;19.78;100.00
10921;BME280;5513;50.580;8.818;2023-05-20T11:50:52;99274.94;;;20.12;100.00
10921;BME280;5513;50.580;8.818;2023-05-20T11:53:22;99260.81;;;19.56;100.00
10921;BME280;5513;50.580;8.818;2023-05-20T11:55:54;99259.81;;;19.12;100.00
10921;BME280;5513;50.580;8.818;2023-05-20T11:58:26;99257.53;;;19.98;100.00
10921;BME280;5513;50.580;8.818;2023-05-20T12:00:57;99265.34;;;20.35;100.00
10921;BME280;5513;50.580;8.818;2023-05-20T12:03:45;99269.91;;;20.61;100.00
10921;BME280;5513;50.580;8.818;2023-05-20T12:06:16;99263.16;;;21.25;100.00
10921;BME280;5513;50.580;8.818;2023-05-20T12:08:47;99276.13;;;20.61;100.00
10921;BME280;5513;50.580;8.818;2023-05-20T12:11:18;99259.06;;;20.26;100.00
10921;BME280;5513;50.580;8.818;2023-05-20T12:13:47;99262.84;;;19.72;100.00
10921;BME280;5513;50.580;8.818;2023-05-20T12:16:16;99259.06;;;19.83;100.00
10921;BME280;5513;50.580;8.818;2023-05-20T12:18:44;99253.94;;;19.26;100.00
10921;BME280;5513;50.580;8.818;2023-05-20T12:21:14;99253.63;;;19.11;100.00
10921;BME280;5513;50.580;8.818;2023-05-20T12:23:42;99246.16;;;19.68;100.00
10921;BME280;5513;50.580;8.818;2023-05-20T12:26:11;99248.09;;;19.49;100.00
10921;BME280;5513;50.580;8.818;2023-05-20T12:28:41;99255.59;;;20.34;100.00
10921;BME280;5513;50.580;8.818;2023-05-20T12:31:09;99248.97;;;20.02;100.00
10921;BME280;5513;50.580;8.818;2023-05-20T12:33:38;99250.34;;;20.50;100.00
10921;BME280;5513;50.580;8.818;2023-05-20T12:36:09;99236.75;;;20.86;100.00
10921;BME280;5513;50.580;8.818;2023-05-20T12:38:37;99240.91;;;20.80;100.00
10921;BME280;5513;50.580;8.818;2023-05-20T12:41:06;99230.38;;;20.95;100.00
10921;BME280;5513;50.580;8.818;2023-05-20T12:43:34;99231.88;;;21.40;100.00
10921;BME280;5513;50.580;8.818;2023-05-20T12:46:05;99219.63;;;21.54;99.03
10921;BME280;5513;50.580;8.818;2023-05-20T12:48:33;99225.72;;;21.22;100.00
10921;BME280;5513;50.580;8.818;2023-05-20T12:51:03;99239.44;;;20.86;100.00
10921;BME280;5513;50.580;8.818;2023-05-20T12:53:31;99225.97;;;21.36;100.00
10921;BME280;5513;50.580;8.818;2023-05-20T12:56:01;99244.47;;;20.55;100.00
10921;BME280;5513;50.580;8.818;2023-05-20T12:58:32;99246.91;;;20.66;100.00
10921;BME280;5513;50.580;8.818;2023-05-20T13:01:03;99236.94;;;21.35;100.00
10921;BME280;5513;50.580;8.818;2023-05-20T13:03:33;99242.06;;;22.11;94.58
10921;BME280;5513;50.580;8.818;2023-05-20T13:06:01;99242.56;;;21.82;92.69
10921;BME280;5513;50.580;8.818;2023-05-20T13:08:31;99242.88;;;21.87;90.06
10921;BME280;5513;50.580;8.818;2023-05-20T13:10:59;99226.38;;;22.07;91.40
10921;BME280;5513;50.580;8.818;2023-05-20T13:13:27;99239.00;;;22.06;90.55
10921;BME280;5513;50.580;8.818;2023-05-20T13:15:55;99235.63;;;21.96;90.96
10921;BME280;5513;50.580;8.818;2023-05-20T13:18:24;99233.56;;;21.41;92.69